Time;durP1;ratioP1;P1;durP2;ratioP2;P2;SDS_P1;SDS_P2;PMS_P1;PMS_P2;Temp;Humidity;BMP_temperature;BMP_pressure;BME280_temperature;BME280_humidity;BME280_pressure;Samples;Min_cycle;Max_cycle;Signal;HPM_P1;HPM_P2
2022/03/09 00:01:53;;;;;;;9.43;6.32;;;;;;;-1.26;93.20;102486.81;5050593;28;20226;-44
2022/03/09 00:04:19;;;;;;;8.63;6.85;;;;;;;-1.43;92.19;102491.44;5050423;28;20181;-45
2022/03/09 00:06:44;;;;;;;6.88;5.90;;;;;;;-1.57;91.56;102487.41;5050264;28;20201;-44
2022/03/09 00:09:10;;;;;;;9.93;6.60;;;;;;;-1.59;91.78;102484.72;5065688;28;20625;-45
2022/03/09 00:11:36;;;;;;;9.55;6.20;;;;;;;-1.65;91.95;102479.22;5050470;28;20254;-44
2022/03/09 00:14:02;;;;;;;10.57;6.78;;;;;;;-1.83;92.27;102484.66;5050433;28;20176;-44
2022/03/09 00:16:28;;;;;;;10.07;6.70;;;;;;;-1.80;92.32;102484.75;5050299;28;20198;-45
2022/03/09 00:18:53;;;;;;;7.55;6.50;;;;;;;-1.77;92.78;102490.16;5049380;28;20187;-45
2022/03/09 00:21:19;;;;;;;7.68;6.88;;;;;;;-1.80;92.48;102495.28;5049773;28;20171;-40
2022/03/09 00:23:47;;;;;;;7.15;5.75;;;;;;;-1.66;92.94;102485.31;5049542;28;20199;-41
2022/03/09 00:26:13;;;;;;;8.73;6.30;;;;;;;-1.59;92.87;102497.84;5050319;28;20599;-40
2022/03/09 00:28:39;;;;;;;8.35;6.47;;;;;;;-1.63;92.31;102501.19;5050126;28;20179;-40
2022/03/09 00:31:05;;;;;;;7.35;6.18;;;;;;;-1.63;91.77;102484.53;5050029;28;20164;-42
2022/03/09 00:33:30;;;;;;;8.55;6.50;;;;;;;-1.62;92.28;102499.47;5049456;28;20310;-40
2022/03/09 00:35:55;;;;;;;8.63;6.57;;;;;;;-1.68;92.09;102493.13;5049581;28;20155;-40
2022/03/09 00:38:21;;;;;;;7.45;6.03;;;;;;;-1.74;91.80;102495.53;5049790;28;20183;-40
2022/03/09 00:40:48;;;;;;;8.63;6.03;;;;;;;-1.75;91.17;102491.13;5049837;28;20199;-42
2022/03/09 00:43:15;;;;;;;7.22;6.07;;;;;;;-1.80;91.81;102492.66;5049179;28;20500;-41
2022/03/09 00:45:41;;;;;;;8.45;5.90;;;;;;;-1.89;91.79;102489.66;5049965;28;20175;-42
2022/03/09 00:48:07;;;;;;;7.43;6.38;;;;;;;-1.76;91.82;102502.44;5049780;28;20168;-41
2022/03/09 00:50:32;;;;;;;11.52;6.40;;;;;;;-1.73;91.50;102497.34;5049772;28;20220;-44
2022/03/09 00:52:58;;;;;;;8.80;6.47;;;;;;;-1.77;91.04;102487.53;5048876;28;20230;-42
2022/03/09 00:55:25;;;;;;;10.90;6.45;;;;;;;-1.74;91.35;102489.38;5049412;28;20226;-43
2022/03/09 00:57:50;;;;;;;8.50;6.45;;;;;;;-1.79;91.27;102481.31;5049764;28;20168;-41
2022/03/09 01:00:16;;;;;;;8.15;5.95;;;;;;;-1.77;91.07;102486.63;5049194;28;20214;-44
2022/03/09 01:02:43;;;;;;;9.73;6.57;;;;;;;-1.81;90.86;102490.88;5049130;28;20199;-44
2022/03/09 01:05:10;;;;;;;6.47;5.65;;;;;;;-1.75;90.96;102503.34;5049151;28;20254;-42
2022/03/09 01:07:35;;;;;;;9.25;6.60;;;;;;;-1.90;90.29;102501.03;5049334;28;20175;-42
2022/03/09 01:10:01;;;;;;;9.80;6.47;;;;;;;-2.01;91.18;102499.66;5049421;28;20178;-43
2022/03/09 01:12:26;;;;;;;8.38;6.57;;;;;;;-2.12;91.01;102488.72;5048722;28;20222;-42
2022/03/09 01:14:52;;;;;;;7.72;6.20;;;;;;;-2.30;92.31;102499.38;5049146;28;20186;-43
2022/03/09 01:17:17;;;;;;;8.48;6.50;;;;;;;-2.36;92.55;102492.16;5049227;28;20225;-42
2022/03/09 01:19:43;;;;;;;8.35;6.82;;;;;;;-2.38;93.37;102498.19;5048947;28;20198;-42
2022/03/09 01:22:08;;;;;;;9.15;6.65;;;;;;;-2.41;93.37;102496.31;5048804;28;20214;-44
2022/03/09 01:24:33;;;;;;;7.75;6.32;;;;;;;-2.37;93.96;102499.97;5049320;28;20249;-43
2022/03/09 01:26:59;;;;;;;7.05;6.05;;;;;;;-2.41;94.42;102491.06;5049085;28;20171;-43
2022/03/09 01:29:24;;;;;;;8.15;6.35;;;;;;;-2.42;94.51;102486.66;5049120;28;20186;-44
2022/03/09 01:31:49;;;;;;;8.50;6.95;;;;;;;-2.40;95.34;102484.13;5048460;28;20377;-43
2022/03/09 01:34:15;;;;;;;11.35;6.55;;;;;;;-2.35;95.02;102491.31;5048970;28;20159;-42
2022/03/09 01:36:40;;;;;;;7.72;6.43;;;;;;;-2.29;94.81;102474.94;5048819;28;20175;-42
2022/03/09 01:39:06;;;;;;;9.15;6.63;;;;;;;-2.24;94.92;102489.16;5048971;28;20325;-43
2022/03/09 01:41:32;;;;;;;6.80;6.00;;;;;;;-2.14;94.79;102480.81;5049278;28;20183;-44
2022/03/09 01:44:11;;;;;;;9.27;6.70;;;;;;;-2.15;94.58;102484.25;5048498;28;20186;-43
2022/03/09 01:46:37;;;;;;;9.65;6.75;;;;;;;-2.18;94.48;102489.41;5047847;28;20194;-43
2022/03/09 01:49:04;;;;;;;8.70;7.15;;;;;;;-2.20;94.00;102480.56;5048859;28;20163;-43
2022/03/09 01:51:32;;;;;;;9.98;6.68;;;;;;;-2.33;94.13;102483.53;5048709;28;20179;-44
2022/03/09 01:53:58;;;;;;;8.15;5.82;;;;;;;-2.22;94.55;102471.72;5048829;28;20651;-41
2022/03/09 01:56:23;;;;;;;8.38;6.45;;;;;;;-2.19;94.27;102471.84;5048705;28;20198;-42
2022/03/09 01:58:49;;;;;;;8.75;6.60;;;;;;;-2.22;94.54;102466.47;5048994;28;20637;-42
2022/03/09 02:01:14;;;;;;;8.80;7.07;;;;;;;-2.26;93.90;102475.06;5049020;28;20822;-42
2022/03/09 02:03:39;;;;;;;8.20;6.45;;;;;;;-2.28;94.03;102466.22;5048133;28;20738;-41
2022/03/09 02:06:05;;;;;;;9.20;6.20;;;;;;;-2.45;94.32;102478.63;5048706;28;20171;-42
2022/03/09 02:11:14;;;;;;;9.20;6.22;;;;;;;-2.34;94.84;102471.22;5048978;28;20540;-43
2022/03/09 02:13:40;;;;;;;9.13;6.50;;;;;;;-2.28;94.74;102471.47;5048039;28;20202;-43
2022/03/09 02:16:06;;;;;;;8.65;6.72;;;;;;;-2.27;94.88;102470.66;5048439;28;20245;-42
2022/03/09 02:18:31;;;;;;;8.15;6.38;;;;;;;-2.28;94.60;102468.84;5048866;28;20179;-43
2022/03/09 02:21:00;;;;;;;7.85;6.22;;;;;;;-2.24;94.47;102457.63;5048359;28;20203;-42
2022/03/09 02:23:26;;;;;;;7.95;6.88;;;;;;;-2.24;94.25;102462.00;5048118;28;20207;-43
2022/03/09 02:25:52;;;;;;;8.68;7.00;;;;;;;-2.22;94.48;102465.59;5048804;28;20177;-42
2022/03/09 02:28:17;;;;;;;8.18;6.63;;;;;;;-2.28;93.99;102458.34;5048541;28;20794;-42
2022/03/09 02:30:43;;;;;;;7.75;6.15;;;;;;;-2.33;94.00;102458.16;5048921;28;20164;-41
2022/03/09 02:33:08;;;;;;;8.27;6.43;;;;;;;-2.54;94.05;102458.16;5028051;28;20200;-43
2022/03/09 02:35:34;;;;;;;8.13;7.07;;;;;;;-2.64;94.54;102460.38;5048425;28;20183;-42
2022/03/09 02:37:59;;;;;;;10.05;7.05;;;;;;;-2.55;94.76;102456.38;5048238;28;20214;-43
2022/03/09 02:40:25;;;;;;;10.00;7.18;;;;;;;-2.48;94.86;102460.16;5048326;28;20175;-42
2022/03/09 02:42:50;;;;;;;9.63;6.88;;;;;;;-2.46;95.33;102468.09;5048127;28;20249;-42
2022/03/09 02:45:16;;;;;;;10.48;7.40;;;;;;;-2.42;95.27;102470.91;5051862;28;20180;-43
2022/03/09 02:47:43;;;;;;;7.60;6.65;;;;;;;-2.42;95.19;102464.78;5050585;28;20258;-42
2022/03/09 02:50:09;;;;;;;10.25;7.00;;;;;;;-2.43;95.05;102471.72;5051171;28;20638;-42
2022/03/09 02:52:40;;;;;;;7.43;6.28;;;;;;;-2.44;94.67;102472.56;5050973;28;20195;-42
2022/03/09 02:55:07;;;;;;;9.63;7.22;;;;;;;-2.45;94.46;102469.88;5051658;28;20234;-42
2022/03/09 02:57:32;;;;;;;9.32;7.13;;;;;;;-2.45;94.26;102462.91;5051582;28;20171;-42
2022/03/09 02:59:58;;;;;;;13.43;7.22;;;;;;;-2.53;94.17;102462.59;5052027;28;20198;-44
2022/03/09 03:02:23;;;;;;;9.50;7.57;;;;;;;-2.53;94.12;102456.47;5050270;28;20245;-43
2022/03/09 03:04:48;;;;;;;10.88;7.18;;;;;;;-2.56;94.47;102459.84;5051888;28;20170;-43
2022/03/09 03:07:14;;;;;;;13.90;7.78;;;;;;;-2.67;94.93;102463.72;5051653;28;20222;-43
2022/03/09 03:09:39;;;;;;;9.50;7.57;;;;;;;-2.55;95.07;102472.13;5050955;28;20199;-41
2022/03/09 03:12:05;;;;;;;12.30;6.65;;;;;;;-2.55;94.75;102472.13;5051018;28;20253;-42
2022/03/09 03:14:30;;;;;;;9.30;7.47;;;;;;;-2.72;95.13;102466.16;5051164;28;20535;-43
2022/03/09 03:16:56;;;;;;;11.90;7.43;;;;;;;-2.72;95.33;102460.03;5050305;28;20195;-43
2022/03/09 03:19:21;;;;;;;10.82;8.25;;;;;;;-2.78;95.64;102463.28;5050903;28;20227;-41
2022/03/09 03:21:47;;;;;;;9.52;7.47;;;;;;;-2.89;96.11;102469.78;5051196;28;20613;-41
2022/03/09 03:24:12;;;;;;;9.13;7.13;;;;;;;-2.93;96.13;102471.41;5050229;28;20662;-42
2022/03/09 03:26:38;;;;;;;12.30;7.97;;;;;;;-2.97;96.85;102456.38;5051082;28;20183;-42
2022/03/09 03:29:03;;;;;;;8.77;7.72;;;;;;;-2.93;97.07;102463.53;5049947;28;20173;-43
2022/03/09 03:31:31;;;;;;;9.27;7.60;;;;;;;-2.97;97.36;102453.75;5050928;28;20167;-42
2022/03/09 03:33:57;;;;;;;10.32;8.13;;;;;;;-2.95;97.22;102451.19;5051394;28;20199;-43
2022/03/09 03:36:23;;;;;;;12.52;8.45;;;;;;;-3.05;97.89;102449.88;5050943;28;20191;-42
2022/03/09 03:38:49;;;;;;;11.43;8.63;;;;;;;-3.01;98.34;102456.16;5050607;28;20188;-43
2022/03/09 03:41:14;;;;;;;10.02;7.78;;;;;;;-2.89;98.38;102443.56;5051188;28;20198;-43
2022/03/09 03:43:40;;;;;;;12.80;7.97;;;;;;;-2.86;98.33;102458.53;5037406;28;20244;-43
2022/03/09 03:46:05;;;;;;;11.20;7.90;;;;;;;-2.80;98.33;102451.84;5050765;28;20222;-42
2022/03/09 03:48:31;;;;;;;11.18;8.75;;;;;;;-2.83;98.36;102453.44;5050916;28;20678;-43
2022/03/09 03:50:56;;;;;;;17.27;8.98;;;;;;;-2.92;98.38;102451.31;5050925;28;20166;-42
2022/03/09 03:53:21;;;;;;;11.35;7.75;;;;;;;-2.93;98.26;102450.44;5048514;28;20191;-43
2022/03/09 03:55:47;;;;;;;9.73;7.72;;;;;;;-2.92;98.42;102454.81;5050505;28;20194;-43
2022/03/09 03:58:12;;;;;;;10.80;8.15;;;;;;;-2.90;98.04;102457.53;5050754;28;20262;-42
2022/03/09 04:00:38;;;;;;;11.25;7.80;;;;;;;-2.95;98.16;102449.47;5050467;28;20713;-43
2022/03/09 04:03:04;;;;;;;10.48;7.82;;;;;;;-2.89;97.82;102446.19;5049885;28;20238;-43
2022/03/09 04:05:30;;;;;;;10.48;8.07;;;;;;;-2.97;97.52;102458.97;5050635;28;20201;-41
2022/03/09 04:07:55;;;;;;;10.88;7.85;;;;;;;-2.99;97.99;102452.78;5050299;28;20156;-41
2022/03/09 04:10:22;;;;;;;9.63;7.80;;;;;;;-3.01;98.03;102458.78;5050527;28;20167;-41
2022/03/09 04:12:47;;;;;;;11.52;8.93;;;;;;;-3.01;98.23;102451.81;5049590;28;20201;-42
2022/03/09 04:15:13;;;;;;;11.93;8.50;;;;;;;-2.97;98.38;102461.59;5050386;28;20660;-41
2022/03/09 04:17:47;;;;;;;10.80;8.45;;;;;;;-2.99;98.29;102468.50;5050366;28;20660;-42
2022/03/09 04:20:14;;;;;;;10.63;7.70;;;;;;;-3.01;98.57;102451.81;5049983;28;20751;-44
2022/03/09 04:22:41;;;;;;;11.52;8.13;;;;;;;-2.99;98.35;102468.50;5050027;28;20670;-43
2022/03/09 04:25:08;;;;;;;8.85;7.50;;;;;;;-2.92;98.53;102462.69;5049917;28;20511;-43
2022/03/09 04:27:33;;;;;;;9.35;8.15;;;;;;;-2.87;98.51;102468.13;5049975;28;20195;-41
2022/03/09 04:29:59;;;;;;;10.07;8.02;;;;;;;-3.07;98.22;102461.13;5050359;28;20168;-41
2022/03/09 04:32:25;;;;;;;11.48;8.27;;;;;;;-3.21;98.42;102460.53;5047862;28;20191;-41
2022/03/09 04:34:52;;;;;;;9.98;7.78;;;;;;;-3.22;98.54;102453.47;5049670;28;20654;-41
2022/03/09 04:37:18;;;;;;;12.23;8.15;;;;;;;-3.19;98.61;102464.09;5049511;28;20750;-43
2022/03/09 04:39:44;;;;;;;11.50;7.75;;;;;;;-3.24;98.78;102455.13;5049778;28;20206;-42
2022/03/09 04:42:10;;;;;;;16.27;9.13;;;;;;;-3.26;99.23;102468.16;5047670;28;20685;-43
2022/03/09 04:44:35;;;;;;;12.80;8.60;;;;;;;-3.31;99.85;102454.84;5049398;28;20269;-43
2022/03/09 04:47:01;;;;;;;13.63;8.63;;;;;;;-3.44;99.95;102468.25;5049741;28;20174;-43
2022/03/09 04:49:26;;;;;;;11.82;8.77;;;;;;;-3.45;100.00;102470.81;5049389;28;20240;-44
2022/03/09 04:51:51;;;;;;;14.68;9.85;;;;;;;-3.49;100.00;102468.88;5049466;28;20261;-43
2022/03/09 04:54:17;;;;;;;11.30;9.05;;;;;;;-3.46;100.00;102461.16;5049879;28;20164;-42
2022/03/09 04:56:42;;;;;;;12.30;9.05;;;;;;;-3.44;100.00;102465.63;5048243;28;20171;-43
2022/03/09 04:59:08;;;;;;;12.27;8.80;;;;;;;-3.45;100.00;102468.19;5049746;28;20202;-41
2022/03/09 05:01:33;;;;;;;14.57;10.10;;;;;;;-3.45;100.00;102461.22;5049689;28;20621;-43
2022/03/09 05:03:58;;;;;;;12.82;9.05;;;;;;;-3.39;100.00;102469.38;5049587;28;20194;-43
2022/03/09 05:06:24;;;;;;;13.15;9.10;;;;;;;-3.28;100.00;102450.59;5048041;28;20191;-43
2022/03/09 05:08:49;;;;;;;15.07;9.23;;;;;;;-3.35;100.00;102459.91;5049610;28;20183;-43
2022/03/09 05:11:15;;;;;;;11.63;9.90;;;;;;;-3.36;100.00;102452.88;5049801;28;20175;-43
2022/03/09 05:13:40;;;;;;;10.57;7.85;;;;;;;-3.26;100.00;102452.44;5048751;28;20261;-43
2022/03/09 05:16:06;;;;;;;13.52;9.88;;;;;;;-3.16;100.00;102464.25;5047862;28;20259;-43
2022/03/09 05:18:32;;;;;;;15.10;9.63;;;;;;;-3.21;100.00;102455.28;5048167;28;20164;-43
2022/03/09 05:20:58;;;;;;;13.63;9.43;;;;;;;-3.25;100.00;102461.22;5049336;28;20249;-41
2022/03/09 05:23:23;;;;;;;12.95;9.70;;;;;;;-3.19;100.00;102458.84;5048897;28;20621;-43
2022/03/09 05:25:48;;;;;;;15.30;9.40;;;;;;;-3.34;100.00;102462.59;5049514;28;20176;-43
2022/03/09 05:28:14;;;;;;;12.55;9.15;;;;;;;-3.27;100.00;102460.25;5048185;28;20214;-43
2022/03/09 05:30:39;;;;;;;9.73;8.35;;;;;;;-3.22;100.00;102462.25;5049537;28;20167;-45
2022/03/09 05:33:04;;;;;;;11.63;8.52;;;;;;;-3.14;100.00;102473.06;5048626;28;20218;-43
2022/03/09 05:35:30;;;;;;;12.10;9.18;;;;;;;-3.13;100.00;102470.53;5049245;28;20202;-44
2022/03/09 05:37:55;;;;;;;13.90;9.35;;;;;;;-3.24;100.00;102476.09;5048990;28;20163;-44
2022/03/09 05:40:20;;;;;;;11.75;8.52;;;;;;;-3.20;100.00;102493.78;5049210;28;20191;-42
2022/03/09 05:42:46;;;;;;;11.60;8.63;;;;;;;-3.11;100.00;102489.81;5049166;28;20559;-44
2022/03/09 05:45:12;;;;;;;12.07;8.73;;;;;;;-3.11;100.00;102481.97;5049140;28;20260;-41
2022/03/09 05:47:38;;;;;;;9.88;8.07;;;;;;;-3.12;100.00;102485.41;5049347;28;20833;-42
2022/03/09 05:50:05;;;;;;;12.65;8.18;;;;;;;-3.09;100.00;102492.53;5048046;28;20630;-44
2022/03/09 05:52:30;;;;;;;9.05;7.47;;;;;;;-3.09;100.00;102495.13;5048875;28;20257;-45
2022/03/09 05:54:55;;;;;;;10.40;7.50;;;;;;;-3.11;100.00;102489.81;5049331;28;20199;-41
2022/03/09 05:57:22;;;;;;;12.05;8.77;;;;;;;-3.20;100.00;102493.78;5049218;28;20685;-43
2022/03/09 05:59:48;;;;;;;10.57;7.82;;;;;;;-3.18;100.00;102492.13;5049514;28;20222;-42
2022/03/09 06:02:13;;;;;;;12.20;8.10;;;;;;;-3.14;100.00;102499.28;5048735;28;20548;-44
2022/03/09 06:04:39;;;;;;;11.13;7.90;;;;;;;-3.19;99.99;102492.94;5064109;28;20644;-44
2022/03/09 06:07:04;;;;;;;12.10;8.52;;;;;;;-3.15;99.97;102500.09;5049337;28;20737;-43
2022/03/09 06:09:30;;;;;;;12.88;7.57;;;;;;;-3.13;99.85;102495.81;5048554;28;20225;-42
2022/03/09 06:11:55;;;;;;;12.55;7.88;;;;;;;-3.13;99.69;102495.81;5048987;28;20215;-43
2022/03/09 06:14:21;;;;;;;9.73;7.95;;;;;;;-3.21;99.99;102494.63;5047437;28;20223;-45
2022/03/09 06:16:47;;;;;;;10.23;8.10;;;;;;;-3.19;99.61;102503.41;5047852;28;20647;-43
2022/03/09 06:19:16;;;;;;;12.65;8.73;;;;;;;-3.11;99.66;102487.19;5051876;28;20198;-45
2022/03/09 06:21:42;;;;;;;10.52;8.00;;;;;;;-3.03;99.71;102492.78;5052170;28;20646;-45
2022/03/09 06:24:08;;;;;;;10.85;7.95;;;;;;;-3.06;99.45;102490.06;5052339;28;20168;-45
2022/03/09 06:26:34;;;;;;;12.52;8.30;;;;;;;-3.12;99.68;102489.78;5052420;28;20353;-44
2022/03/09 06:28:59;;;;;;;13.38;8.20;;;;;;;-3.13;99.83;102485.34;5052618;28;20638;-47
2022/03/09 06:31:25;;;;;;;11.65;8.23;;;;;;;-2.99;100.00;102484.25;5052714;28;20182;-45
2022/03/09 06:33:50;;;;;;;11.77;8.43;;;;;;;-2.82;100.00;102486.69;5052126;28;20274;-46
2022/03/09 06:36:16;;;;;;;11.43;8.68;;;;;;;-2.67;99.82;102495.22;5051151;28;20356;-46
2022/03/09 06:38:41;;;;;;;11.88;7.50;;;;;;;-2.60;99.48;102501.63;5051755;28;20233;-41
2022/03/09 06:41:07;;;;;;;10.80;8.13;;;;;;;-2.46;99.04;102500.47;5052410;28;20284;-44
2022/03/09 06:43:33;;;;;;;9.82;7.80;;;;;;;-2.41;98.93;102498.94;5051855;28;20628;-45
2022/03/09 06:45:58;;;;;;;10.63;7.95;;;;;;;-2.31;98.78;102502.84;5050622;28;20163;-45
2022/03/09 06:48:24;;;;;;;11.45;7.97;;;;;;;-2.22;98.42;102503.22;5052442;28;20597;-44
2022/03/09 06:50:49;;;;;;;13.32;8.38;;;;;;;-2.10;98.37;102487.06;5050816;28;20205;-45
2022/03/09 06:53:15;;;;;;;15.57;7.63;;;;;;;-1.92;97.84;102500.97;5052350;28;20270;-44
2022/03/09 06:55:40;;;;;;;13.27;7.93;;;;;;;-1.57;97.66;102493.56;5052117;28;20221;-46
2022/03/09 06:58:06;;;;;;;10.50;8.13;;;;;;;-1.20;97.28;102497.56;5051233;28;20188;-44
2022/03/09 07:00:31;;;;;;;13.43;8.23;;;;;;;-0.85;96.54;102490.94;5050892;28;20225;-45
2022/03/09 07:02:57;;;;;;;11.23;8.32;;;;;;;-0.46;96.22;102489.63;5051521;28;20207;-48
2022/03/09 07:05:23;;;;;;;11.88;8.75;;;;;;;-0.32;95.08;102487.47;5050722;28;20221;-43
2022/03/09 07:07:48;;;;;;;10.43;7.85;;;;;;;-0.05;94.04;102483.09;5052325;28;20171;-45
2022/03/09 07:10:14;;;;;;;9.30;8.13;;;;;;;0.30;92.98;102490.31;5051822;28;20653;-42
2022/03/09 07:12:42;;;;;;;10.98;8.30;;;;;;;0.63;91.91;102490.41;5051922;28;20191;-44
2022/03/09 07:15:08;;;;;;;10.38;7.85;;;;;;;0.94;90.42;102488.66;5066935;28;20623;-43
2022/03/09 07:17:33;;;;;;;9.32;7.50;;;;;;;1.15;89.40;102483.97;5051452;28;20180;-44
2022/03/09 07:19:59;;;;;;;10.43;7.75;;;;;;;1.49;87.49;102483.97;5051512;28;20304;-44
2022/03/09 07:22:24;;;;;;;10.25;7.18;;;;;;;1.54;85.53;102485.91;5051630;28;20218;-43
2022/03/09 07:24:50;;;;;;;11.18;7.85;;;;;;;1.81;84.16;102482.16;5051731;28;20172;-45
2022/03/09 07:27:15;;;;;;;9.57;7.47;;;;;;;2.18;82.79;102485.66;5051602;28;20171;-44
2022/03/09 07:29:41;;;;;;;8.95;7.07;;;;;;;2.47;81.23;102476.66;5051190;28;20264;-43
2022/03/09 07:32:08;;;;;;;11.77;7.47;;;;;;;2.74;79.37;102475.44;5050901;28;20756;-43
2022/03/09 07:34:34;;;;;;;12.07;7.32;;;;;;;3.13;78.49;102482.38;5051621;28;20209;-46
2022/03/09 07:37:00;;;;;;;7.68;6.55;;;;;;;3.37;76.83;102474.00;5051411;28;20167;-44
2022/03/09 07:39:26;;;;;;;9.77;6.15;;;;;;;3.49;74.95;102475.97;5050911;28;20195;-44
2022/03/09 07:41:56;;;;;;;8.73;7.05;;;;;;;3.68;73.84;102488.66;5051331;28;20638;-48
2022/03/09 07:44:23;;;;;;;7.90;6.07;;;;;;;3.92;73.20;102480.22;5049489;28;20187;-45
2022/03/09 07:46:50;;;;;;;10.25;6.80;;;;;;;4.32;73.11;102483.47;5051658;28;20384;-43
2022/03/09 07:49:17;;;;;;;7.07;5.97;;;;;;;4.64;72.95;102490.09;5051343;28;20187;-45
2022/03/09 07:51:43;;;;;;;7.35;6.00;;;;;;;4.82;72.76;102487.66;5051058;28;20213;-45
2022/03/09 07:54:09;;;;;;;8.43;5.55;;;;;;;4.94;70.39;102490.50;5051100;28;20202;-45
2022/03/09 07:56:36;;;;;;;9.77;5.30;;;;;;;5.12;68.88;102491.56;5051173;28;20171;-45
2022/03/09 07:59:03;;;;;;;6.20;5.05;;;;;;;5.47;67.42;102489.28;5051428;28;20179;-44
2022/03/09 08:01:28;;;;;;;7.35;4.78;;;;;;;5.39;65.86;102490.06;5051451;28;20167;-43
2022/03/09 08:03:54;;;;;;;5.65;4.88;;;;;;;5.17;65.80;102492.50;5053865;28;20278;-44
2022/03/09 08:06:20;;;;;;;6.07;4.82;;;;;;;5.37;65.48;102495.38;5059192;28;20198;-44
2022/03/09 08:08:46;;;;;;;5.80;4.72;;;;;;;5.60;64.76;102492.94;5059222;28;20183;-44
2022/03/09 08:11:12;;;;;;;5.22;4.30;;;;;;;5.46;63.44;102494.56;5050902;28;20174;-44
2022/03/09 08:13:37;;;;;;;6.50;4.15;;;;;;;6.00;62.97;102490.63;5050300;28;20191;-44
2022/03/09 08:16:03;;;;;;;7.85;4.50;;;;;;;6.20;62.00;102488.09;5067469;28;20599;-45
2022/03/09 08:18:29;;;;;;;5.30;4.22;;;;;;;6.27;61.61;102492.59;5048899;28;20314;-44
2022/03/09 08:20:54;;;;;;;4.68;4.05;;;;;;;6.17;61.12;102491.66;5062755;28;20183;-43
2022/03/09 08:23:20;;;;;;;5.32;3.67;;;;;;;5.60;60.88;102492.94;5070686;28;20195;-44
2022/03/09 08:25:45;;;;;;;6.60;4.20;;;;;;;5.54;60.50;102500.84;5070768;28;20158;-42
2022/03/09 08:28:11;;;;;;;4.60;3.78;;;;;;;5.77;60.01;102491.31;5070787;28;20167;-43
2022/03/09 08:30:38;;;;;;;5.40;3.80;;;;;;;5.92;59.59;102500.28;5070969;28;20244;-45
2022/03/09 08:33:04;;;;;;;6.13;4.10;;;;;;;6.13;59.20;102503.16;5070832;28;20689;-46
2022/03/09 08:35:30;;;;;;;6.15;4.03;;;;;;;6.22;58.21;102494.34;5070570;28;20177;-43
2022/03/09 08:37:55;;;;;;;5.93;4.30;;;;;;;6.48;58.75;102501.59;5070623;28;20166;-43
2022/03/09 08:40:20;;;;;;;4.30;3.88;;;;;;;6.69;58.27;102504.38;5069270;28;20474;-47
2022/03/09 08:42:46;;;;;;;4.40;3.63;;;;;;;6.72;57.61;102495.50;5069810;28;20241;-49
2022/03/09 08:45:11;;;;;;;4.45;4.05;;;;;;;6.56;57.74;102506.09;5070187;28;20934;-43
2022/03/09 08:47:39;;;;;;;5.00;3.78;;;;;;;6.58;57.51;102506.06;5069151;28;20176;-46
2022/03/09 08:50:05;;;;;;;6.97;4.43;;;;;;;6.65;57.48;102499.00;5070152;28;20163;-42
2022/03/09 08:52:30;;;;;;;5.28;4.53;;;;;;;6.88;56.79;102496.44;5069578;28;20209;-43
2022/03/09 08:54:56;;;;;;;6.85;4.38;;;;;;;7.05;56.84;102493.84;5069911;28;20179;-44
2022/03/09 08:57:21;;;;;;;4.70;4.00;;;;;;;7.05;56.31;102508.06;5069959;28;20513;-47
2022/03/09 08:59:47;;;;;;;5.22;4.13;;;;;;;7.12;55.57;102500.97;5069774;28;20202;-47
2022/03/09 09:02:12;;;;;;;5.35;3.78;;;;;;;7.00;55.76;102507.16;5069514;28;20199;-44
2022/03/09 09:04:38;;;;;;;5.65;3.72;;;;;;;7.09;55.20;102508.97;5069545;28;20178;-44
2022/03/09 09:07:06;;;;;;;7.25;3.65;;;;;;;7.23;54.44;102509.88;5070219;28;20168;-47
2022/03/09 09:09:32;;;;;;;6.05;3.70;;;;;;;7.43;53.98;102505.50;5070064;28;20162;-45
2022/03/09 09:11:59;;;;;;;6.18;4.07;;;;;;;7.48;53.79;102513.53;5069753;28;20229;-46
2022/03/09 09:14:26;;;;;;;4.35;3.20;;;;;;;7.90;52.65;102514.44;5069651;28;20205;-44
2022/03/09 09:16:51;;;;;;;6.97;3.42;;;;;;;7.57;52.15;102523.31;5069962;28;20181;-44
2022/03/09 09:19:17;;;;;;;5.28;3.25;;;;;;;7.65;51.29;102510.84;5069304;28;20194;-44
2022/03/09 09:21:44;;;;;;;7.35;3.83;;;;;;;7.67;51.56;102519.75;5069711;28;20641;-45
2022/03/09 09:24:09;;;;;;;4.60;3.40;;;;;;;7.83;50.59;102515.34;5069135;28;20519;-42
2022/03/09 09:26:35;;;;;;;6.65;3.25;;;;;;;7.87;50.78;102517.13;5069088;28;20198;-44
2022/03/09 09:29:00;;;;;;;5.07;3.40;;;;;;;8.17;49.49;102513.50;5069026;28;20692;-47
2022/03/09 09:31:26;;;;;;;3.55;3.10;;;;;;;8.04;50.00;102512.63;5065569;28;20540;-45
2022/03/09 09:33:51;;;;;;;3.60;2.95;;;;;;;7.91;48.98;102516.19;5048897;28;20256;-48
2022/03/09 09:36:17;;;;;;;4.97;3.83;;;;;;;8.11;49.06;102507.28;5049183;28;20159;-46
2022/03/09 09:38:42;;;;;;;4.75;3.38;;;;;;;8.30;49.57;102509.03;5054783;28;20198;-47
2022/03/09 09:41:13;;;;;;;4.95;3.50;;;;;;;8.60;49.38;102502.78;5066229;28;20301;-46
2022/03/09 09:43:40;;;;;;;5.43;3.25;;;;;;;8.62;47.95;102505.47;5046774;28;20254;-45
2022/03/09 09:46:07;;;;;;;4.78;3.35;;;;;;;8.95;48.56;102504.44;5047950;28;20527;-46
2022/03/09 09:48:33;;;;;;;3.53;3.05;;;;;;;8.93;47.90;102506.22;5065791;28;20613;-46
2022/03/09 09:51:00;;;;;;;3.22;2.92;;;;;;;9.22;47.17;102499.84;5068873;28;20231;-46
2022/03/09 09:53:27;;;;;;;6.85;3.00;;;;;;;8.97;45.43;102502.63;5072718;28;20213;-45
2022/03/09 09:55:53;;;;;;;3.25;2.95;;;;;;;8.93;45.64;102503.56;5073011;28;20178;-47
2022/03/09 09:58:19;;;;;;;5.25;3.35;;;;;;;9.13;44.40;102500.78;5073226;28;20166;-45
2022/03/09 10:00:45;;;;;;;6.95;3.30;;;;;;;8.90;44.27;102505.34;5073039;28;20347;-47
2022/03/09 10:03:11;;;;;;;7.57;3.25;;;;;;;8.99;44.65;102502.66;5072475;28;20323;-46
2022/03/09 10:05:37;;;;;;;3.53;3.10;;;;;;;8.97;44.94;102502.63;5071389;28;20246;-46
2022/03/09 10:08:06;;;;;;;3.95;3.28;;;;;;;8.63;44.77;102510.78;5072886;28;20724;-46
2022/03/09 10:10:43;;;;;;;6.43;3.60;;;;;;;9.06;44.73;102502.59;5071132;28;20641;-44
2022/03/09 10:13:19;;;;;;;7.82;3.50;;;;;;;8.82;44.04;102505.38;5072381;28;20213;-45
2022/03/09 10:15:48;;;;;;;5.85;3.08;;;;;;;8.56;43.81;102511.69;5071434;28;20174;-46
2022/03/09 10:18:21;;;;;;;5.65;3.30;;;;;;;8.90;43.99;102513.34;5071102;28;20555;-48
2022/03/09 10:20:49;;;;;;;3.30;3.00;;;;;;;9.12;43.99;102508.78;5072558;28;20211;-47
2022/03/09 10:23:17;;;;;;;4.10;3.53;;;;;;;9.16;44.10;102508.78;5071937;28;20201;-46
2022/03/09 10:25:42;;;;;;;4.32;3.30;;;;;;;9.31;43.53;102512.25;5072651;28;20707;-44
2022/03/09 10:28:10;;;;;;;4.88;3.25;;;;;;;9.30;44.39;102523.88;5072594;28;20159;-47
2022/03/09 10:30:39;;;;;;;7.22;3.28;;;;;;;9.44;44.11;102520.19;5072605;28;20610;-47
2022/03/09 10:33:05;;;;;;;3.90;3.50;;;;;;;9.82;43.09;102512.81;5054729;28;20459;-47
2022/03/09 10:35:31;;;;;;;5.55;3.47;;;;;;;9.92;44.39;102506.47;5051957;28;20171;-46
2022/03/09 10:38:02;;;;;;;4.10;3.50;;;;;;;9.66;44.04;102515.63;5052242;28;20182;-47
2022/03/09 10:40:30;;;;;;;4.00;3.35;;;;;;;9.54;44.15;102522.84;5050999;28;20386;-47
2022/03/09 10:43:13;;;;;;;3.63;3.22;;;;;;;9.53;43.29;102515.69;5052003;28;20194;-45
2022/03/09 10:46:08;;;;;;;4.97;3.10;;;;;;;9.37;43.18;102502.41;5052072;28;20195;-45
2022/03/09 10:48:57;;;;;;;6.10;3.13;;;;;;;9.43;42.97;102501.50;5052131;28;20194;-43
2022/03/09 10:51:30;;;;;;;4.88;3.35;;;;;;;9.88;43.48;102504.72;5052194;28;20176;-46
2022/03/09 10:53:57;;;;;;;6.30;3.00;;;;;;;9.68;43.20;102500.41;5050040;28;20230;-45
2022/03/09 10:56:23;;;;;;;3.88;3.47;;;;;;;10.01;43.66;102508.16;5051446;28;20562;-45
2022/03/09 10:58:48;;;;;;;4.00;3.60;;;;;;;9.63;42.68;102504.03;5049312;28;20171;-44
2022/03/09 11:01:18;;;;;;;4.78;3.03;;;;;;;9.88;43.48;102500.28;5050723;28;20249;-45
2022/03/09 11:03:45;;;;;;;3.40;3.10;;;;;;;9.80;42.67;102496.75;5050605;28;20195;-48
2022/03/09 11:06:11;;;;;;;8.15;3.15;;;;;;;9.56;42.87;102496.97;5051785;28;20168;-46
2022/03/09 11:08:39;;;;;;;3.90;3.47;;;;;;;10.09;42.96;102501.84;5051936;28;20541;-45
2022/03/09 11:11:06;;;;;;;4.68;3.40;;;;;;;10.07;43.25;102505.44;5051795;28;20175;-47
2022/03/09 11:13:34;;;;;;;3.58;3.13;;;;;;;10.17;41.74;102508.94;5051548;28;20313;-44
2022/03/09 11:16:00;;;;;;;3.88;3.20;;;;;;;10.30;41.71;102498.13;5052065;28;20646;-43
2022/03/09 11:18:28;;;;;;;4.25;3.45;;;;;;;10.62;41.91;102502.22;5051794;28;20171;-43
2022/03/09 11:20:57;;;;;;;5.35;3.10;;;;;;;10.23;41.00;102511.53;5051998;28;20198;-45
2022/03/09 11:23:25;;;;;;;6.25;3.10;;;;;;;10.29;42.84;102495.44;5050749;28;20199;-45